sensor_id;sensor_type;location;lat;lon;timestamp;temperature;humidity
12384;DHT22;6256;63.808;20.336;2022-07-01T00:01:28;20.60;99.90
12384;DHT22;6256;63.808;20.336;2022-07-01T00:03:54;20.50;99.90
12384;DHT22;6256;63.808;20.336;2022-07-01T00:06:20;20.50;99.90
12384;DHT22;6256;63.808;20.336;2022-07-01T00:08:46;20.50;99.90
12384;DHT22;6256;63.808;20.336;2022-07-01T00:11:13;20.50;99.90
12384;DHT22;6256;63.808;20.336;2022-07-01T00:13:39;20.50;99.90
12384;DHT22;6256;63.808;20.336;2022-07-01T00:16:05;20.50;99.90
12384;DHT22;6256;63.808;20.336;2022-07-01T00:18:31;20.50;99.90
12384;DHT22;6256;63.808;20.336;2022-07-01T00:20:57;20.40;99.90
12384;DHT22;6256;63.808;20.336;2022-07-01T00:23:23;20.40;99.90
12384;DHT22;6256;63.808;20.336;2022-07-01T00:25:48;20.30;99.90
12384;DHT22;6256;63.808;20.336;2022-07-01T00:28:14;20.30;99.90
12384;DHT22;6256;63.808;20.336;2022-07-01T00:30:40;20.20;99.90
12384;DHT22;6256;63.808;20.336;2022-07-01T00:33:06;20.20;99.90
12384;DHT22;6256;63.808;20.336;2022-07-01T00:35:31;20.10;99.90
12384;DHT22;6256;63.808;20.336;2022-07-01T00:37:57;20.10;99.90
12384;DHT22;6256;63.808;20.336;2022-07-01T00:40:26;20.10;99.90
12384;DHT22;6256;63.808;20.336;2022-07-01T00:42:51;20.10;99.90
12384;DHT22;6256;63.808;20.336;2022-07-01T00:45:17;20.10;99.90
12384;DHT22;6256;63.808;20.336;2022-07-01T00:47:44;20.00;99.90
12384;DHT22;6256;63.808;20.336;2022-07-01T00:50:14;20.00;99.90
12384;DHT22;6256;63.808;20.336;2022-07-01T00:52:41;20.00;99.90
12384;DHT22;6256;63.808;20.336;2022-07-01T00:55:09;20.00;99.90
12384;DHT22;6256;63.808;20.336;2022-07-01T00:57:38;19.90;99.90
12384;DHT22;6256;63.808;20.336;2022-07-01T01:00:11;19.90;99.90
12384;DHT22;6256;63.808;20.336;2022-07-01T01:02:37;19.90;99.90
12384;DHT22;6256;63.808;20.336;2022-07-01T01:05:08;19.90;99.90
12384;DHT22;6256;63.808;20.336;2022-07-01T01:07:34;19.80;99.90
12384;DHT22;6256;63.808;20.336;2022-07-01T01:10:01;19.80;99.90
12384;DHT22;6256;63.808;20.336;2022-07-01T01:12:28;19.80;99.90
12384;DHT22;6256;63.808;20.336;2022-07-01T01:14:55;19.80;99.90
12384;DHT22;6256;63.808;20.336;2022-07-01T01:17:21;19.70;99.90
12384;DHT22;6256;63.808;20.336;2022-07-01T01:19:51;19.70;99.90
12384;DHT22;6256;63.808;20.336;2022-07-01T01:22:19;19.70;99.90
12384;DHT22;6256;63.808;20.336;2022-07-01T01:24:46;19.70;99.90
12384;DHT22;6256;63.808;20.336;2022-07-01T01:27:12;19.70;99.90
12384;DHT22;6256;63.808;20.336;2022-07-01T01:29:40;19.70;99.90
12384;DHT22;6256;63.808;20.336;2022-07-01T01:32:07;19.70;99.90
12384;DHT22;6256;63.808;20.336;2022-07-01T01:34:34;19.60;99.90
12384;DHT22;6256;63.808;20.336;2022-07-01T01:37:01;19.60;99.90
12384;DHT22;6256;63.808;20.336;2022-07-01T01:39:26;19.70;99.90
12384;DHT22;6256;63.808;20.336;2022-07-01T01:41:52;19.70;99.90
12384;DHT22;6256;63.808;20.336;2022-07-01T01:44:18;19.70;99.90
12384;DHT22;6256;63.808;20.336;2022-07-01T01:46:44;19.70;99.90
12384;DHT22;6256;63.808;20.336;2022-07-01T01:49:10;19.70;99.90
12384;DHT22;6256;63.808;20.336;2022-07-01T01:51:36;19.70;99.90
12384;DHT22;6256;63.808;20.336;2022-07-01T01:54:02;19.70;99.90
12384;DHT22;6256;63.808;20.336;2022-07-01T01:56:28;19.70;99.90
12384;DHT22;6256;63.808;20.336;2022-07-01T01:58:55;19.70;99.90
12384;DHT22;6256;63.808;20.336;2022-07-01T02:01:21;19.70;99.90
12384;DHT22;6256;63.808;20.336;2022-07-01T02:03:48;19.70;99.90
12384;DHT22;6256;63.808;20.336;2022-07-01T02:06:17;19.70;99.90
12384;DHT22;6256;63.808;20.336;2022-07-01T02:08:43;19.80;99.90
12384;DHT22;6256;63.808;20.336;2022-07-01T02:11:09;19.80;99.90
12384;DHT22;6256;63.808;20.336;2022-07-01T02:13:36;19.90;99.90
12384;DHT22;6256;63.808;20.336;2022-07-01T02:16:02;19.90;99.90
12384;DHT22;6256;63.808;20.336;2022-07-01T02:18:28;20.00;99.90
12384;DHT22;6256;63.808;20.336;2022-07-01T02:20:55;20.00;99.90
12384;DHT22;6256;63.808;20.336;2022-07-01T02:23:21;20.10;99.90
12384;DHT22;6256;63.808;20.336;2022-07-01T02:25:47;20.10;99.90
12384;DHT22;6256;63.808;20.336;2022-07-01T02:28:13;20.10;99.90
12384;DHT22;6256;63.808;20.336;2022-07-01T02:30:39;20.20;99.90
12384;DHT22;6256;63.808;20.336;2022-07-01T02:33:05;20.20;99.90
12384;DHT22;6256;63.808;20.336;2022-07-01T02:35:32;20.30;99.90
12384;DHT22;6256;63.808;20.336;2022-07-01T02:37:58;20.30;99.90
12384;DHT22;6256;63.808;20.336;2022-07-01T02:40:24;20.30;99.90
12384;DHT22;6256;63.808;20.336;2022-07-01T02:42:50;20.40;99.90
12384;DHT22;6256;63.808;20.336;2022-07-01T02:45:15;20.40;99.90
12384;DHT22;6256;63.808;20.336;2022-07-01T02:47:41;20.40;99.90
12384;DHT22;6256;63.808;20.336;2022-07-01T02:50:10;20.50;99.90
12384;DHT22;6256;63.808;20.336;2022-07-01T02:52:38;20.50;99.90
12384;DHT22;6256;63.808;20.336;2022-07-01T02:55:05;20.50;99.90
12384;DHT22;6256;63.808;20.336;2022-07-01T02:57:31;20.60;99.90
12384;DHT22;6256;63.808;20.336;2022-07-01T02:59:57;20.70;99.90
12384;DHT22;6256;63.808;20.336;2022-07-01T03:02:23;20.80;99.90
12384;DHT22;6256;63.808;20.336;2022-07-01T03:04:50;20.90;99.90
12384;DHT22;6256;63.808;20.336;2022-07-01T03:07:16;20.90;99.90
12384;DHT22;6256;63.808;20.336;2022-07-01T03:09:42;21.00;99.90
12384;DHT22;6256;63.808;20.336;2022-07-01T03:12:09;21.00;99.90
12384;DHT22;6256;63.808;20.336;2022-07-01T03:15:09;21.00;99.90
12384;DHT22;6256;63.808;20.336;2022-07-01T03:17:37;21.00;99.90
12384;DHT22;6256;63.808;20.336;2022-07-01T03:20:05;21.00;99.90
12384;DHT22;6256;63.808;20.336;2022-07-01T03:22:31;21.00;99.90
12384;DHT22;6256;63.808;20.336;2022-07-01T03:24:57;21.10;99.90
12384;DHT22;6256;63.808;20.336;2022-07-01T03:27:24;21.10;99.90
12384;DHT22;6256;63.808;20.336;2022-07-01T03:29:50;21.20;99.90
12384;DHT22;6256;63.808;20.336;2022-07-01T03:32:16;21.20;99.90
12384;DHT22;6256;63.808;20.336;2022-07-01T03:34:45;21.30;99.90
12384;DHT22;6256;63.808;20.336;2022-07-01T03:37:12;21.40;99.90
12384;DHT22;6256;63.808;20.336;2022-07-01T03:39:38;21.50;99.90
12384;DHT22;6256;63.808;20.336;2022-07-01T03:42:06;21.60;99.90
12384;DHT22;6256;63.808;20.336;2022-07-01T03:44:33;21.70;99.90
12384;DHT22;6256;63.808;20.336;2022-07-01T03:47:00;21.70;99.90
12384;DHT22;6256;63.808;20.336;2022-07-01T03:49:26;21.80;99.90
12384;DHT22;6256;63.808;20.336;2022-07-01T03:51:52;21.90;99.90
12384;DHT22;6256;63.808;20.336;2022-07-01T03:54:18;21.90;99.90
12384;DHT22;6256;63.808;20.336;2022-07-01T03:57:02;22.00;99.90
12384;DHT22;6256;63.808;20.336;2022-07-01T03:59:40;22.00;99.90
12384;DHT22;6256;63.808;20.336;2022-07-01T04:02:06;22.10;99.90
12384;DHT22;6256;63.808;20.336;2022-07-01T04:04:33;22.20;99.90
12384;DHT22;6256;63.808;20.336;2022-07-01T04:07:03;22.20;99.90
12384;DHT22;6256;63.808;20.336;2022-07-01T04:09:30;22.20;99.90
12384;DHT22;6256;63.808;20.336;2022-07-01T04:11:56;22.20;99.90
12384;DHT22;6256;63.808;20.336;2022-07-01T04:14:23;22.20;99.90
12384;DHT22;6256;63.808;20.336;2022-07-01T04:16:52;22.20;99.90
12384;DHT22;6256;63.808;20.336;2022-07-01T04:19:19;22.20;99.90
12384;DHT22;6256;63.808;20.336;2022-07-01T04:21:45;22.20;99.90
12384;DHT22;6256;63.808;20.336;2022-07-01T04:24:29;22.30;99.90
12384;DHT22;6256;63.808;20.336;2022-07-01T04:26:58;22.30;99.90
12384;DHT22;6256;63.808;20.336;2022-07-01T04:29:24;22.30;99.90
12384;DHT22;6256;63.808;20.336;2022-07-01T04:31:49;22.30;99.90
12384;DHT22;6256;63.808;20.336;2022-07-01T04:34:15;22.30;99.90
12384;DHT22;6256;63.808;20.336;2022-07-01T04:36:42;22.40;99.90
12384;DHT22;6256;63.808;20.336;2022-07-01T04:39:08;22.30;99.90
12384;DHT22;6256;63.808;20.336;2022-07-01T04:41:34;22.30;99.90
12384;DHT22;6256;63.808;20.336;2022-07-01T04:44:19;22.30;99.90
12384;DHT22;6256;63.808;20.336;2022-07-01T04:46:45;22.40;99.90
12384;DHT22;6256;63.808;20.336;2022-07-01T04:49:11;22.50;99.90
12384;DHT22;6256;63.808;20.336;2022-07-01T04:51:37;22.60;99.90
12384;DHT22;6256;63.808;20.336;2022-07-01T04:54:03;22.60;99.90
12384;DHT22;6256;63.808;20.336;2022-07-01T04:56:29;22.70;99.90
12384;DHT22;6256;63.808;20.336;2022-07-01T04:58:55;22.80;99.90
12384;DHT22;6256;63.808;20.336;2022-07-01T05:01:21;22.90;99.90
12384;DHT22;6256;63.808;20.336;2022-07-01T05:03:48;22.90;99.90
12384;DHT22;6256;63.808;20.336;2022-07-01T05:06:14;23.00;99.90
12384;DHT22;6256;63.808;20.336;2022-07-01T05:08:40;23.00;99.90
12384;DHT22;6256;63.808;20.336;2022-07-01T05:11:05;23.10;99.90
12384;DHT22;6256;63.808;20.336;2022-07-01T05:13:32;23.20;99.90
12384;DHT22;6256;63.808;20.336;2022-07-01T05:15:59;23.20;99.90
12384;DHT22;6256;63.808;20.336;2022-07-01T05:18:25;23.30;99.90
12384;DHT22;6256;63.808;20.336;2022-07-01T05:21:09;23.40;99.90
12384;DHT22;6256;63.808;20.336;2022-07-01T05:23:53;23.50;99.90
12384;DHT22;6256;63.808;20.336;2022-07-01T05:26:19;23.60;99.90
12384;DHT22;6256;63.808;20.336;2022-07-01T05:28:46;23.70;99.90
12384;DHT22;6256;63.808;20.336;2022-07-01T05:31:12;23.70;99.90
12384;DHT22;6256;63.808;20.336;2022-07-01T05:33:38;23.80;99.90
12384;DHT22;6256;63.808;20.336;2022-07-01T05:36:04;23.90;99.90
12384;DHT22;6256;63.808;20.336;2022-07-01T05:38:30;24.00;99.90
12384;DHT22;6256;63.808;20.336;2022-07-01T05:40:56;24.00;99.90
12384;DHT22;6256;63.808;20.336;2022-07-01T05:43:21;24.00;99.90
12384;DHT22;6256;63.808;20.336;2022-07-01T05:45:47;24.00;99.90
12384;DHT22;6256;63.808;20.336;2022-07-01T05:48:13;24.20;99.90
12384;DHT22;6256;63.808;20.336;2022-07-01T05:50:42;24.20;99.90
12384;DHT22;6256;63.808;20.336;2022-07-01T05:53:09;24.30;99.90
12384;DHT22;6256;63.808;20.336;2022-07-01T05:55:35;24.40;99.90
12384;DHT22;6256;63.808;20.336;2022-07-01T05:58:01;24.40;99.90
12384;DHT22;6256;63.808;20.336;2022-07-01T06:00:27;24.50;99.90
12384;DHT22;6256;63.808;20.336;2022-07-01T06:02:53;24.60;99.90
12384;DHT22;6256;63.808;20.336;2022-07-01T06:05:19;24.60;99.90
12384;DHT22;6256;63.808;20.336;2022-07-01T06:07:45;24.60;99.90
12384;DHT22;6256;63.808;20.336;2022-07-01T06:10:11;24.60;99.90
12384;DHT22;6256;63.808;20.336;2022-07-01T06:12:38;24.60;99.90
12384;DHT22;6256;63.808;20.336;2022-07-01T06:15:05;24.50;99.90
12384;DHT22;6256;63.808;20.336;2022-07-01T06:17:32;24.50;99.90
12384;DHT22;6256;63.808;20.336;2022-07-01T06:19:58;24.50;99.90
12384;DHT22;6256;63.808;20.336;2022-07-01T06:22:23;24.40;99.90
12384;DHT22;6256;63.808;20.336;2022-07-01T06:24:49;24.50;99.90
12384;DHT22;6256;63.808;20.336;2022-07-01T06:27:15;24.50;99.90
12384;DHT22;6256;63.808;20.336;2022-07-01T06:29:40;24.50;99.90
12384;DHT22;6256;63.808;20.336;2022-07-01T06:32:07;24.50;99.90
12384;DHT22;6256;63.808;20.336;2022-07-01T06:34:33;24.60;99.90
12384;DHT22;6256;63.808;20.336;2022-07-01T06:36:59;24.60;99.90
12384;DHT22;6256;63.808;20.336;2022-07-01T06:39:26;24.70;99.90
12384;DHT22;6256;63.808;20.336;2022-07-01T06:41:52;24.60;99.90
12384;DHT22;6256;63.808;20.336;2022-07-01T06:44:18;24.60;99.90
12384;DHT22;6256;63.808;20.336;2022-07-01T06:46:44;24.60;99.90
12384;DHT22;6256;63.808;20.336;2022-07-01T06:49:10;24.60;99.90
12384;DHT22;6256;63.808;20.336;2022-07-01T06:51:36;24.50;99.90
12384;DHT22;6256;63.808;20.336;2022-07-01T06:54:02;24.60;99.90
12384;DHT22;6256;63.808;20.336;2022-07-01T06:56:28;24.60;99.90
12384;DHT22;6256;63.808;20.336;2022-07-01T06:58:54;24.70;99.90
12384;DHT22;6256;63.808;20.336;2022-07-01T07:01:20;24.70;99.90
12384;DHT22;6256;63.808;20.336;2022-07-01T07:03:46;24.80;99.90
12384;DHT22;6256;63.808;20.336;2022-07-01T07:06:12;24.90;99.90
12384;DHT22;6256;63.808;20.336;2022-07-01T07:08:37;24.90;99.90
12384;DHT22;6256;63.808;20.336;2022-07-01T07:11:04;25.00;99.90
12384;DHT22;6256;63.808;20.336;2022-07-01T07:13:30;25.00;99.90
12384;DHT22;6256;63.808;20.336;2022-07-01T07:15:56;25.00;99.90
12384;DHT22;6256;63.808;20.336;2022-07-01T07:18:22;24.90;99.90
12384;DHT22;6256;63.808;20.336;2022-07-01T07:20:47;24.90;99.90
12384;DHT22;6256;63.808;20.336;2022-07-01T07:23:14;25.00;99.90
12384;DHT22;6256;63.808;20.336;2022-07-01T07:25:39;25.10;99.90
12384;DHT22;6256;63.808;20.336;2022-07-01T07:28:05;25.20;99.90
12384;DHT22;6256;63.808;20.336;2022-07-01T07:30:31;25.30;99.90
12384;DHT22;6256;63.808;20.336;2022-07-01T07:32:57;25.50;99.90
12384;DHT22;6256;63.808;20.336;2022-07-01T07:35:23;25.60;99.90
12384;DHT22;6256;63.808;20.336;2022-07-01T07:37:49;25.80;99.90
12384;DHT22;6256;63.808;20.336;2022-07-01T07:40:14;25.90;99.90
12384;DHT22;6256;63.808;20.336;2022-07-01T07:42:45;26.00;99.90
12384;DHT22;6256;63.808;20.336;2022-07-01T07:45:11;26.00;99.90
12384;DHT22;6256;63.808;20.336;2022-07-01T07:47:37;26.10;99.90
12384;DHT22;6256;63.808;20.336;2022-07-01T07:50:04;26.20;99.90
12384;DHT22;6256;63.808;20.336;2022-07-01T07:52:30;26.20;99.90
12384;DHT22;6256;63.808;20.336;2022-07-01T07:54:56;26.30;99.90
12384;DHT22;6256;63.808;20.336;2022-07-01T07:57:22;26.30;99.90
12384;DHT22;6256;63.808;20.336;2022-07-01T07:59:48;26.20;99.90
12384;DHT22;6256;63.808;20.336;2022-07-01T08:02:14;26.10;99.90
12384;DHT22;6256;63.808;20.336;2022-07-01T08:04:39;26.10;99.90
12384;DHT22;6256;63.808;20.336;2022-07-01T08:07:05;26.00;99.90
12384;DHT22;6256;63.808;20.336;2022-07-01T08:09:31;25.80;99.90
12384;DHT22;6256;63.808;20.336;2022-07-01T08:12:03;25.80;99.90
12384;DHT22;6256;63.808;20.336;2022-07-01T08:14:29;25.90;99.90
12384;DHT22;6256;63.808;20.336;2022-07-01T08:16:55;25.80;99.90
12384;DHT22;6256;63.808;20.336;2022-07-01T08:19:20;25.80;99.90
12384;DHT22;6256;63.808;20.336;2022-07-01T08:21:46;25.90;99.90
12384;DHT22;6256;63.808;20.336;2022-07-01T08:24:12;26.00;99.90
12384;DHT22;6256;63.808;20.336;2022-07-01T08:26:38;26.10;99.90
12384;DHT22;6256;63.808;20.336;2022-07-01T08:29:04;26.20;99.90
12384;DHT22;6256;63.808;20.336;2022-07-01T08:31:29;26.40;99.90
12384;DHT22;6256;63.808;20.336;2022-07-01T08:33:57;26.60;99.90
12384;DHT22;6256;63.808;20.336;2022-07-01T08:36:23;26.80;99.90
12384;DHT22;6256;63.808;20.336;2022-07-01T08:38:49;27.00;99.90
12384;DHT22;6256;63.808;20.336;2022-07-01T08:41:15;27.20;99.90
12384;DHT22;6256;63.808;20.336;2022-07-01T08:43:41;27.40;99.90
12384;DHT22;6256;63.808;20.336;2022-07-01T08:46:07;27.50;99.90
12384;DHT22;6256;63.808;20.336;2022-07-01T08:48:34;27.60;99.90
12384;DHT22;6256;63.808;20.336;2022-07-01T08:51:00;27.80;99.90
12384;DHT22;6256;63.808;20.336;2022-07-01T08:53:30;27.90;99.90
12384;DHT22;6256;63.808;20.336;2022-07-01T08:55:57;27.80;97.90
12384;DHT22;6256;63.808;20.336;2022-07-01T08:58:41;27.90;97.60
12384;DHT22;6256;63.808;20.336;2022-07-01T09:01:19;27.90;97.60
12384;DHT22;6256;63.808;20.336;2022-07-01T09:03:50;28.00;96.30
12384;DHT22;6256;63.808;20.336;2022-07-01T09:06:27;28.10;96.70
12384;DHT22;6256;63.808;20.336;2022-07-01T09:08:53;28.20;96.40
12384;DHT22;6256;63.808;20.336;2022-07-01T09:11:20;28.40;96.70
12384;DHT22;6256;63.808;20.336;2022-07-01T09:14:11;28.50;97.00
12384;DHT22;6256;63.808;20.336;2022-07-01T09:16:48;28.60;98.30
12384;DHT22;6256;63.808;20.336;2022-07-01T09:19:16;28.50;96.20
12384;DHT22;6256;63.808;20.336;2022-07-01T09:21:51;28.60;97.20
12384;DHT22;6256;63.808;20.336;2022-07-01T09:24:38;28.70;96.20
12384;DHT22;6256;63.808;20.336;2022-07-01T09:27:07;28.70;96.00
12384;DHT22;6256;63.808;20.336;2022-07-01T09:29:40;28.60;96.70
12384;DHT22;6256;63.808;20.336;2022-07-01T09:32:09;28.50;95.90
12384;DHT22;6256;63.808;20.336;2022-07-01T09:34:47;28.60;96.40
12384;DHT22;6256;63.808;20.336;2022-07-01T09:37:18;28.60;95.70
12384;DHT22;6256;63.808;20.336;2022-07-01T09:39:49;28.70;94.50
12384;DHT22;6256;63.808;20.336;2022-07-01T09:42:16;28.60;95.80
12384;DHT22;6256;63.808;20.336;2022-07-01T09:44:56;28.90;97.40
12384;DHT22;6256;63.808;20.336;2022-07-01T09:47:24;29.30;93.70
12384;DHT22;6256;63.808;20.336;2022-07-01T09:49:50;29.30;94.10
12384;DHT22;6256;63.808;20.336;2022-07-01T09:52:17;29.60;94.80
12384;DHT22;6256;63.808;20.336;2022-07-01T09:54:47;29.70;93.80
12384;DHT22;6256;63.808;20.336;2022-07-01T09:57:18;30.10;94.30
12384;DHT22;6256;63.808;20.336;2022-07-01T09:59:46;30.40;93.00
12384;DHT22;6256;63.808;20.336;2022-07-01T10:02:12;30.70;93.00
12384;DHT22;6256;63.808;20.336;2022-07-01T10:04:40;31.00;91.40
12384;DHT22;6256;63.808;20.336;2022-07-01T10:07:19;30.90;90.30
12384;DHT22;6256;63.808;20.336;2022-07-01T10:12:33;30.80;88.80
12384;DHT22;6256;63.808;20.336;2022-07-01T10:15:01;30.50;87.10
12384;DHT22;6256;63.808;20.336;2022-07-01T10:17:36;30.30;91.10
12384;DHT22;6256;63.808;20.336;2022-07-01T10:20:19;30.50;90.40
12384;DHT22;6256;63.808;20.336;2022-07-01T10:22:46;30.30;89.10
12384;DHT22;6256;63.808;20.336;2022-07-01T10:25:38;30.40;90.70
12384;DHT22;6256;63.808;20.336;2022-07-01T10:28:29;30.40;90.90
12384;DHT22;6256;63.808;20.336;2022-07-01T10:31:03;30.50;90.00
12384;DHT22;6256;63.808;20.336;2022-07-01T10:33:41;30.60;90.50
12384;DHT22;6256;63.808;20.336;2022-07-01T10:36:23;30.70;90.50
12384;DHT22;6256;63.808;20.336;2022-07-01T10:41:41;31.10;89.90
12384;DHT22;6256;63.808;20.336;2022-07-01T10:44:10;31.20;90.50
12384;DHT22;6256;63.808;20.336;2022-07-01T10:49:18;30.90;90.10
12384;DHT22;6256;63.808;20.336;2022-07-01T10:51:48;30.80;90.30
12384;DHT22;6256;63.808;20.336;2022-07-01T10:57:19;30.50;88.30
12384;DHT22;6256;63.808;20.336;2022-07-01T10:59:56;30.80;90.20
12384;DHT22;6256;63.808;20.336;2022-07-01T11:02:40;31.20;90.30
12384;DHT22;6256;63.808;20.336;2022-07-01T11:05:15;31.80;87.70
12384;DHT22;6256;63.808;20.336;2022-07-01T11:07:45;32.20;87.40
12384;DHT22;6256;63.808;20.336;2022-07-01T11:10:15;32.50;86.50
12384;DHT22;6256;63.808;20.336;2022-07-01T11:12:42;32.50;85.10
12384;DHT22;6256;63.808;20.336;2022-07-01T11:15:10;32.90;86.20
12384;DHT22;6256;63.808;20.336;2022-07-01T11:17:42;33.10;83.30
12384;DHT22;6256;63.808;20.336;2022-07-01T11:20:09;33.10;81.10
12384;DHT22;6256;63.808;20.336;2022-07-01T11:22:35;33.40;81.40
12384;DHT22;6256;63.808;20.336;2022-07-01T11:25:06;34.30;78.30
12384;DHT22;6256;63.808;20.336;2022-07-01T11:27:32;35.10;78.90
12384;DHT22;6256;63.808;20.336;2022-07-01T11:30:02;36.20;76.90
12384;DHT22;6256;63.808;20.336;2022-07-01T11:32:36;36.90;70.70
12384;DHT22;6256;63.808;20.336;2022-07-01T11:35:04;37.40;69.40
12384;DHT22;6256;63.808;20.336;2022-07-01T11:37:50;37.80;67.50
12384;DHT22;6256;63.808;20.336;2022-07-01T11:40:34;38.30;64.80
12384;DHT22;6256;63.808;20.336;2022-07-01T11:43:00;38.00;63.60
12384;DHT22;6256;63.808;20.336;2022-07-01T11:45:26;37.30;61.40
12384;DHT22;6256;63.808;20.336;2022-07-01T11:47:53;37.50;63.10
12384;DHT22;6256;63.808;20.336;2022-07-01T11:50:19;37.00;62.30
12384;DHT22;6256;63.808;20.336;2022-07-01T11:52:45;36.80;62.00
12384;DHT22;6256;63.808;20.336;2022-07-01T11:55:11;36.90;64.90
12384;DHT22;6256;63.808;20.336;2022-07-01T11:57:37;37.00;62.80
12384;DHT22;6256;63.808;20.336;2022-07-01T12:00:13;37.30;58.40
12384;DHT22;6256;63.808;20.336;2022-07-01T12:02:39;36.40;61.20
12384;DHT22;6256;63.808;20.336;2022-07-01T12:05:05;36.10;64.10
12384;DHT22;6256;63.808;20.336;2022-07-01T12:07:32;36.10;60.50
12384;DHT22;6256;63.808;20.336;2022-07-01T12:09:58;36.20;62.80
12384;DHT22;6256;63.808;20.336;2022-07-01T12:12:27;35.80;60.30
12384;DHT22;6256;63.808;20.336;2022-07-01T12:14:55;35.90;61.50
12384;DHT22;6256;63.808;20.336;2022-07-01T12:17:22;36.10;60.70
12384;DHT22;6256;63.808;20.336;2022-07-01T12:19:49;36.70;58.40
12384;DHT22;6256;63.808;20.336;2022-07-01T12:22:22;37.00;56.20
12384;DHT22;6256;63.808;20.336;2022-07-01T12:24:53;37.70;57.70
12384;DHT22;6256;63.808;20.336;2022-07-01T12:27:29;38.40;58.10
12384;DHT22;6256;63.808;20.336;2022-07-01T12:29:59;38.90;57.80
12384;DHT22;6256;63.808;20.336;2022-07-01T12:32:27;38.60;55.30
12384;DHT22;6256;63.808;20.336;2022-07-01T12:34:56;37.90;57.00
12384;DHT22;6256;63.808;20.336;2022-07-01T12:37:27;37.60;55.00
12384;DHT22;6256;63.808;20.336;2022-07-01T12:39:59;37.40;55.80
12384;DHT22;6256;63.808;20.336;2022-07-01T12:42:32;37.80;55.30
12384;DHT22;6256;63.808;20.336;2022-07-01T12:45:06;38.20;55.70
12384;DHT22;6256;63.808;20.336;2022-07-01T12:47:46;38.90;56.20
12384;DHT22;6256;63.808;20.336;2022-07-01T12:52:44;40.10;56.30
12384;DHT22;6256;63.808;20.336;2022-07-01T12:55:21;40.80;53.80
12384;DHT22;6256;63.808;20.336;2022-07-01T12:57:51;41.10;54.90
12384;DHT22;6256;63.808;20.336;2022-07-01T13:00:19;41.10;52.20
12384;DHT22;6256;63.808;20.336;2022-07-01T13:02:45;41.30;55.10
12384;DHT22;6256;63.808;20.336;2022-07-01T13:05:11;41.50;53.40
12384;DHT22;6256;63.808;20.336;2022-07-01T13:07:37;41.70;53.30
12384;DHT22;6256;63.808;20.336;2022-07-01T13:10:03;41.70;51.80
12384;DHT22;6256;63.808;20.336;2022-07-01T13:12:29;41.70;53.10
12384;DHT22;6256;63.808;20.336;2022-07-01T13:14:55;42.10;52.00
12384;DHT22;6256;63.808;20.336;2022-07-01T13:17:26;42.10;53.30
12384;DHT22;6256;63.808;20.336;2022-07-01T13:19:52;42.30;52.20
12384;DHT22;6256;63.808;20.336;2022-07-01T13:22:19;42.00;53.80
12384;DHT22;6256;63.808;20.336;2022-07-01T13:24:45;42.50;53.40
12384;DHT22;6256;63.808;20.336;2022-07-01T13:27:11;42.40;53.00
12384;DHT22;6256;63.808;20.336;2022-07-01T13:29:37;42.50;51.90
12384;DHT22;6256;63.808;20.336;2022-07-01T13:32:04;42.50;50.50
12384;DHT22;6256;63.808;20.336;2022-07-01T13:34:30;42.40;52.50
12384;DHT22;6256;63.808;20.336;2022-07-01T13:36:56;42.30;51.60
12384;DHT22;6256;63.808;20.336;2022-07-01T13:39:22;42.40;50.30
12384;DHT22;6256;63.808;20.336;2022-07-01T13:41:48;42.50;50.70
12384;DHT22;6256;63.808;20.336;2022-07-01T13:44:13;42.70;49.20
12384;DHT22;6256;63.808;20.336;2022-07-01T13:46:39;42.50;51.00
12384;DHT22;6256;63.808;20.336;2022-07-01T13:49:06;42.70;48.90
12384;DHT22;6256;63.808;20.336;2022-07-01T13:51:32;42.70;49.80
12384;DHT22;6256;63.808;20.336;2022-07-01T13:53:58;42.90;51.10
12384;DHT22;6256;63.808;20.336;2022-07-01T13:56:27;42.80;50.40
12384;DHT22;6256;63.808;20.336;2022-07-01T13:58:53;42.50;50.30
12384;DHT22;6256;63.808;20.336;2022-07-01T14:01:21;42.80;51.70
12384;DHT22;6256;63.808;20.336;2022-07-01T14:03:49;43.60;49.10
12384;DHT22;6256;63.808;20.336;2022-07-01T14:06:15;43.90;49.30
12384;DHT22;6256;63.808;20.336;2022-07-01T14:08:41;44.00;47.40
12384;DHT22;6256;63.808;20.336;2022-07-01T14:11:08;43.70;48.10
12384;DHT22;6256;63.808;20.336;2022-07-01T14:13:34;43.10;47.50
12384;DHT22;6256;63.808;20.336;2022-07-01T14:16:03;42.90;49.00
12384;DHT22;6256;63.808;20.336;2022-07-01T14:18:32;42.70;47.80
12384;DHT22;6256;63.808;20.336;2022-07-01T14:20:58;41.70;47.50
12384;DHT22;6256;63.808;20.336;2022-07-01T14:23:24;41.40;49.00
12384;DHT22;6256;63.808;20.336;2022-07-01T14:25:50;41.60;49.40
12384;DHT22;6256;63.808;20.336;2022-07-01T14:28:15;41.10;48.80
12384;DHT22;6256;63.808;20.336;2022-07-01T14:30:41;41.00;50.20
12384;DHT22;6256;63.808;20.336;2022-07-01T14:33:07;40.50;49.30
12384;DHT22;6256;63.808;20.336;2022-07-01T14:35:32;39.80;51.20
12384;DHT22;6256;63.808;20.336;2022-07-01T14:37:58;39.10;50.80
12384;DHT22;6256;63.808;20.336;2022-07-01T14:40:25;38.70;52.00
12384;DHT22;6256;63.808;20.336;2022-07-01T14:42:51;38.20;51.00
12384;DHT22;6256;63.808;20.336;2022-07-01T14:45:17;37.80;51.40
12384;DHT22;6256;63.808;20.336;2022-07-01T14:47:44;37.40;50.30
12384;DHT22;6256;63.808;20.336;2022-07-01T14:50:11;36.90;52.30
12384;DHT22;6256;63.808;20.336;2022-07-01T14:52:37;36.70;54.70
12384;DHT22;6256;63.808;20.336;2022-07-01T14:55:03;37.10;54.60
12384;DHT22;6256;63.808;20.336;2022-07-01T14:57:30;37.30;54.80
12384;DHT22;6256;63.808;20.336;2022-07-01T14:59:56;37.50;54.30
12384;DHT22;6256;63.808;20.336;2022-07-01T15:02:22;37.50;54.30
12384;DHT22;6256;63.808;20.336;2022-07-01T15:04:48;37.50;53.90
12384;DHT22;6256;63.808;20.336;2022-07-01T15:07:14;37.70;53.60
12384;DHT22;6256;63.808;20.336;2022-07-01T15:09:40;37.50;51.70
12384;DHT22;6256;63.808;20.336;2022-07-01T15:12:06;37.10;51.50
12384;DHT22;6256;63.808;20.336;2022-07-01T15:14:32;37.10;55.60
12384;DHT22;6256;63.808;20.336;2022-07-01T15:16:57;37.10;54.60
12384;DHT22;6256;63.808;20.336;2022-07-01T15:19:24;36.90;53.30
12384;DHT22;6256;63.808;20.336;2022-07-01T15:21:53;37.10;54.10
12384;DHT22;6256;63.808;20.336;2022-07-01T15:24:19;37.60;55.50
12384;DHT22;6256;63.808;20.336;2022-07-01T15:26:45;37.90;53.10
12384;DHT22;6256;63.808;20.336;2022-07-01T15:29:11;38.00;51.80
12384;DHT22;6256;63.808;20.336;2022-07-01T15:31:36;37.40;52.80
12384;DHT22;6256;63.808;20.336;2022-07-01T15:34:02;37.30;53.20
12384;DHT22;6256;63.808;20.336;2022-07-01T15:36:28;37.00;51.50
12384;DHT22;6256;63.808;20.336;2022-07-01T15:38:54;36.20;53.60
12384;DHT22;6256;63.808;20.336;2022-07-01T15:41:21;35.90;54.90
12384;DHT22;6256;63.808;20.336;2022-07-01T15:43:49;35.40;54.40
12384;DHT22;6256;63.808;20.336;2022-07-01T15:46:15;34.70;56.10
12384;DHT22;6256;63.808;20.336;2022-07-01T15:48:40;34.20;55.30